Time;durP1;ratioP1;P1;durP2;ratioP2;P2;SDS_P1;SDS_P2;PMS_P1;PMS_P2;Temp;Humidity;BMP_temperature;BMP_pressure;BME280_temperature;BME280_humidity;BME280_pressure;Samples;Min_cycle;Max_cycle;Signal;HPM_P1;HPM_P2
2021/09/09 00:02:04;;;;;;;0.08;0.08;;;16.90;99.90;;;;;;4980825;28;20034;-79
2021/09/09 00:04:30;;;;;;;0.10;0.10;;;16.90;99.90;;;;;;4980878;28;20034;-79
2021/09/09 00:06:55;;;;;;;0.10;0.10;;;16.90;99.90;;;;;;4980900;28;20084;-78
2021/09/09 00:09:21;;;;;;;0.13;0.13;;;16.90;99.90;;;;;;4996763;28;20026;-79
2021/09/09 00:11:47;;;;;;;0.10;0.10;;;16.90;99.90;;;;;;4996750;28;20033;-79
2021/09/09 00:14:13;;;;;;;0.10;0.10;;;16.80;99.90;;;;;;4996422;28;20439;-79
2021/09/09 00:16:40;;;;;;;0.47;0.47;;;16.80;99.90;;;;;;4996189;28;20108;-79
2021/09/09 00:19:06;;;;;;;0.10;0.10;;;16.80;99.90;;;;;;4995752;28;20487;-79
2021/09/09 00:21:31;;;;;;;3.42;3.22;;;16.70;99.90;;;;;;5013624;28;20037;-79
2021/09/09 00:23:57;;;;;;;0.17;0.17;;;16.70;99.90;;;;;;4981549;28;20541;-79
2021/09/09 00:26:23;;;;;;;0.20;0.20;;;16.70;99.90;;;;;;5000175;28;20039;-78
2021/09/09 00:28:49;;;;;;;0.10;0.10;;;16.60;99.90;;;;;;4997370;28;20120;-78
2021/09/09 00:31:15;;;;;;;0.10;0.10;;;16.70;99.90;;;;;;4980913;28;20076;-79
2021/09/09 00:33:43;;;;;;;0.17;0.17;;;16.70;99.90;;;;;;4980942;28;20445;-79
2021/09/09 00:36:10;;;;;;;0.10;0.10;;;16.70;99.90;;;;;;4996219;28;20506;-78
2021/09/09 00:38:36;;;;;;;0.15;0.15;;;16.70;99.90;;;;;;4996440;28;20029;-78
2021/09/09 00:41:02;;;;;;;0.45;0.40;;;16.70;99.90;;;;;;4996829;28;20022;-79
2021/09/09 00:43:27;;;;;;;0.30;0.30;;;16.60;99.90;;;;;;4979764;28;20029;-78
2021/09/09 00:45:55;;;;;;;0.10;0.10;;;16.60;99.90;;;;;;4995776;28;20104;-78
2021/09/09 00:48:21;;;;;;;0.10;0.10;;;16.60;99.90;;;;;;4996031;28;20113;-79
2021/09/09 00:50:48;;;;;;;0.10;0.10;;;16.60;99.90;;;;;;4979762;28;20041;-78
2021/09/09 00:53:15;;;;;;;0.10;0.10;;;16.60;99.90;;;;;;4996187;28;20073;-77
2021/09/09 00:55:41;;;;;;;0.52;0.52;;;16.60;99.90;;;;;;4979742;28;20092;-77
2021/09/09 00:58:10;;;;;;;0.13;0.13;;;16.60;99.90;;;;;;4981284;28;20029;-78
2021/09/09 01:00:39;;;;;;;0.10;0.10;;;16.60;99.90;;;;;;4983185;28;20030;-78
2021/09/09 01:03:08;;;;;;;0.10;0.10;;;16.60;99.90;;;;;;4999067;28;20026;-78
2021/09/09 01:05:34;;;;;;;0.10;0.10;;;16.50;99.90;;;;;;5016349;28;20088;-79
2021/09/09 01:08:00;;;;;;;0.20;0.20;;;16.50;99.90;;;;;;4982650;28;20022;-78
2021/09/09 01:10:26;;;;;;;0.10;0.10;;;16.60;99.90;;;;;;4998291;28;20032;-77
2021/09/09 01:12:52;;;;;;;0.10;0.10;;;16.50;99.90;;;;;;4982469;28;20022;-79
2021/09/09 01:15:17;;;;;;;0.10;0.10;;;16.50;99.90;;;;;;4981889;28;20076;-78
2021/09/09 01:17:43;;;;;;;0.15;0.15;;;16.50;99.90;;;;;;4982250;28;20375;-79
2021/09/09 01:20:09;;;;;;;0.10;0.10;;;16.50;99.90;;;;;;4982174;28;20113;-78
2021/09/09 01:22:35;;;;;;;0.10;0.10;;;16.40;99.90;;;;;;5015738;28;20030;-77
2021/09/09 01:25:00;;;;;;;0.10;0.10;;;16.40;99.90;;;;;;4981809;28;20026;-79
2021/09/09 01:27:26;;;;;;;0.10;0.10;;;16.40;99.90;;;;;;5015627;28;20022;-78
2021/09/09 01:29:52;;;;;;;0.10;0.10;;;16.30;99.90;;;;;;4997910;28;20022;-79
2021/09/09 01:32:18;;;;;;;0.10;0.10;;;16.30;99.90;;;;;;4981625;28;20720;-77
2021/09/09 01:34:43;;;;;;;0.20;0.20;;;16.30;99.90;;;;;;5015377;28;20041;-78
2021/09/09 01:37:11;;;;;;;0.10;0.10;;;16.40;99.90;;;;;;4981042;28;20030;-78
2021/09/09 01:39:40;;;;;;;0.20;0.20;;;16.40;99.90;;;;;;5015183;28;20105;-77
2021/09/09 01:42:06;;;;;;;0.10;0.10;;;16.40;99.90;;;;;;4997599;28;20033;-77
2021/09/09 01:44:32;;;;;;;0.20;0.20;;;16.30;99.90;;;;;;5014543;28;20553;-77
2021/09/09 01:46:58;;;;;;;0.20;0.20;;;16.30;99.90;;;;;;5015008;28;20061;-77
2021/09/09 01:49:25;;;;;;;0.13;0.13;;;16.20;99.90;;;;;;4997373;28;20045;-78
2021/09/09 01:51:51;;;;;;;0.10;0.10;;;16.20;99.90;;;;;;4982354;28;20120;-76
2021/09/09 01:54:17;;;;;;;0.10;0.10;;;16.30;99.90;;;;;;4980940;28;20068;-78
2021/09/09 01:56:43;;;;;;;0.10;0.10;;;16.30;99.90;;;;;;5014125;28;20088;-77
2021/09/09 01:59:08;;;;;;;0.10;0.10;;;16.20;99.90;;;;;;4996633;28;20028;-77
2021/09/09 02:01:34;;;;;;;0.10;0.10;;;16.20;99.90;;;;;;4980477;28;20026;-77
2021/09/09 02:04:01;;;;;;;0.20;0.20;;;16.20;99.90;;;;;;5014180;28;20029;-77
2021/09/09 02:06:27;;;;;;;0.13;0.13;;;16.10;99.90;;;;;;4980127;28;20026;-77
2021/09/09 02:08:52;;;;;;;0.10;0.10;;;16.10;99.90;;;;;;5013771;28;20025;-78
2021/09/09 02:11:18;;;;;;;0.10;0.10;;;16.10;99.90;;;;;;4980289;28;20030;-77
2021/09/09 02:13:44;;;;;;;0.15;0.15;;;16.10;99.90;;;;;;4980206;28;20022;-78
2021/09/09 02:16:09;;;;;;;0.17;0.17;;;16.10;99.90;;;;;;4996262;28;20057;-77
2021/09/09 02:18:35;;;;;;;0.10;0.10;;;16.10;99.90;;;;;;4996485;28;20107;-77
2021/09/09 02:21:01;;;;;;;0.13;0.13;;;16.10;99.90;;;;;;4979777;28;20033;-77
2021/09/09 02:23:27;;;;;;;0.10;0.10;;;16.10;99.90;;;;;;4980032;28;20025;-77
2021/09/09 02:25:53;;;;;;;0.20;0.20;;;16.10;99.90;;;;;;4979808;28;20519;-78
2021/09/09 02:28:19;;;;;;;0.17;0.17;;;16.10;99.90;;;;;;4996285;28;20156;-77
2021/09/09 02:30:45;;;;;;;0.10;0.10;;;16.00;99.90;;;;;;4996245;28;20101;-78
2021/09/09 02:33:10;;;;;;;0.10;0.10;;;16.00;99.90;;;;;;4996045;28;20111;-77
2021/09/09 02:35:37;;;;;;;0.13;0.13;;;16.00;99.90;;;;;;4979356;28;20034;-78
2021/09/09 02:38:02;;;;;;;0.10;0.10;;;16.00;99.90;;;;;;4980024;28;20556;-77
2021/09/09 02:40:28;;;;;;;0.13;0.13;;;16.00;99.90;;;;;;4995722;28;20033;-78
2021/09/09 02:42:54;;;;;;;0.20;0.20;;;16.00;99.90;;;;;;4997784;28;20033;-77
2021/09/09 02:45:20;;;;;;;0.10;0.10;;;16.00;99.90;;;;;;4988108;28;20050;-77
2021/09/09 02:47:46;;;;;;;0.20;0.20;;;16.00;99.90;;;;;;5019070;28;20026;-79
2021/09/09 02:50:12;;;;;;;0.22;0.22;;;16.00;99.90;;;;;;4983020;28;20527;-79
2021/09/09 02:52:39;;;;;;;0.10;0.10;;;15.90;99.90;;;;;;4999445;28;20394;-81
2021/09/09 02:55:06;;;;;;;0.20;0.20;;;16.00;99.90;;;;;;4982493;28;20033;-81
2021/09/09 02:57:31;;;;;;;0.10;0.10;;;16.00;99.90;;;;;;4998690;28;20387;-81
2021/09/09 02:59:57;;;;;;;0.10;0.10;;;15.90;99.90;;;;;;4998135;28;20029;-80
2021/09/09 03:02:25;;;;;;;0.20;0.20;;;15.90;99.90;;;;;;5015832;28;20478;-81
2021/09/09 03:04:50;;;;;;;0.20;0.20;;;16.00;99.90;;;;;;4981552;28;20507;-81
2021/09/09 03:07:16;;;;;;;0.20;0.20;;;15.90;99.90;;;;;;4997912;28;20106;-80
2021/09/09 03:09:42;;;;;;;0.20;0.20;;;15.90;99.90;;;;;;4981428;28;20022;-80
2021/09/09 03:12:08;;;;;;;0.20;0.20;;;15.90;99.90;;;;;;5015305;28;20022;-81
2021/09/09 03:14:33;;;;;;;0.15;0.15;;;15.90;99.90;;;;;;4997128;28;20394;-81
2021/09/09 03:16:59;;;;;;;0.20;0.20;;;15.90;99.90;;;;;;4997502;28;20030;-79
2021/09/09 03:19:25;;;;;;;0.10;0.10;;;15.90;99.90;;;;;;4980983;28;20030;-80
2021/09/09 03:21:50;;;;;;;1.10;1.08;;;15.90;99.90;;;;;;4996462;28;20026;-80
2021/09/09 03:24:16;;;;;;;0.10;0.10;;;15.90;99.90;;;;;;4980699;28;20085;-80
2021/09/09 03:26:42;;;;;;;0.10;0.10;;;15.90;99.90;;;;;;4979989;28;20553;-80
2021/09/09 03:29:07;;;;;;;0.20;0.20;;;15.90;99.90;;;;;;5014255;28;20037;-80
2021/09/09 03:31:33;;;;;;;0.10;0.10;;;15.90;99.90;;;;;;4980095;28;20044;-81
2021/09/09 03:33:59;;;;;;;0.10;0.10;;;15.90;99.90;;;;;;4996350;28;20025;-81
2021/09/09 03:36:25;;;;;;;0.17;0.17;;;15.90;99.90;;;;;;4995730;28;20037;-80
2021/09/09 03:38:50;;;;;;;0.10;0.10;;;15.90;99.90;;;;;;5014008;28;20091;-80
2021/09/09 03:41:16;;;;;;;0.10;0.10;;;15.80;99.90;;;;;;4996296;28;20030;-80
2021/09/09 03:43:42;;;;;;;0.10;0.10;;;15.70;99.90;;;;;;4981016;28;20025;-81
2021/09/09 03:46:07;;;;;;;0.13;0.13;;;15.70;99.90;;;;;;4979793;28;20125;-80
2021/09/09 03:48:33;;;;;;;0.30;0.30;;;15.70;99.90;;;;;;4985573;28;20026;-80
2021/09/09 03:50:59;;;;;;;0.10;0.10;;;15.80;99.90;;;;;;5001063;28;20028;-81
2021/09/09 03:53:24;;;;;;;0.20;0.20;;;15.80;99.90;;;;;;5015300;28;20022;-81
2021/09/09 03:55:50;;;;;;;0.20;0.20;;;15.80;99.90;;;;;;4980729;28;20034;-80
2021/09/09 03:58:16;;;;;;;0.10;0.10;;;15.80;99.90;;;;;;4997515;28;20108;-81
2021/09/09 04:00:41;;;;;;;1.20;1.20;;;15.80;99.90;;;;;;4980796;28;20501;-81
2021/09/09 04:03:07;;;;;;;0.10;0.10;;;15.70;99.90;;;;;;4997243;28;20542;-80
2021/09/09 04:05:33;;;;;;;0.10;0.10;;;15.70;99.90;;;;;;4980088;28;20030;-80
2021/09/09 04:07:58;;;;;;;0.30;0.30;;;15.70;99.90;;;;;;4997103;28;20032;-80
2021/09/09 04:10:24;;;;;;;0.20;0.20;;;15.60;99.90;;;;;;4996353;28;20520;-81
2021/09/09 04:12:50;;;;;;;0.15;0.15;;;15.50;99.90;;;;;;4996396;28;20061;-80
2021/09/09 04:15:17;;;;;;;0.20;0.20;;;15.50;99.90;;;;;;4980201;28;20026;-80
2021/09/09 04:17:42;;;;;;;0.40;0.40;;;15.50;99.90;;;;;;4996473;28;20414;-81
2021/09/09 04:20:09;;;;;;;0.10;0.10;;;15.40;99.90;;;;;;4996684;28;20057;-80
2021/09/09 04:22:35;;;;;;;0.10;0.10;;;15.40;99.90;;;;;;4996225;28;20014;-81
2021/09/09 04:25:02;;;;;;;0.10;0.10;;;15.40;99.90;;;;;;4995845;28;20100;-81
2021/09/09 04:27:30;;;;;;;0.10;0.10;;;15.40;99.90;;;;;;4979680;28;20079;-80
2021/09/09 04:29:57;;;;;;;0.10;0.10;;;15.40;99.90;;;;;;4996265;28;20490;-81
2021/09/09 04:32:23;;;;;;;0.10;0.10;;;15.40;99.90;;;;;;4995864;28;20483;-81
2021/09/09 04:34:48;;;;;;;0.10;0.10;;;15.30;99.90;;;;;;4999903;28;20030;-81
2021/09/09 04:37:14;;;;;;;0.10;0.10;;;15.30;99.90;;;;;;4983001;28;20117;-79
2021/09/09 04:39:40;;;;;;;0.10;0.10;;;15.30;99.90;;;;;;5016961;28;20026;-80
2021/09/09 04:42:05;;;;;;;0.10;0.10;;;15.30;99.90;;;;;;4999274;28;20442;-81
2021/09/09 04:44:31;;;;;;;0.10;0.10;;;15.20;99.90;;;;;;4998954;28;20022;-80
2021/09/09 04:46:57;;;;;;;0.20;0.20;;;15.20;99.90;;;;;;4998888;28;20169;-80
2021/09/09 04:49:23;;;;;;;0.10;0.10;;;15.20;99.90;;;;;;4999305;28;20022;-80
2021/09/09 04:51:48;;;;;;;0.20;0.20;;;15.30;99.90;;;;;;5017000;28;20029;-80
2021/09/09 04:54:14;;;;;;;0.13;0.13;;;15.30;99.90;;;;;;4998816;28;20097;-80
2021/09/09 04:56:40;;;;;;;0.10;0.10;;;15.30;99.90;;;;;;4998773;28;20088;-81
2021/09/09 04:59:05;;;;;;;0.65;0.40;;;15.40;99.90;;;;;;4998815;28;20026;-80
2021/09/09 05:01:31;;;;;;;0.10;0.10;;;15.50;99.90;;;;;;5016356;28;20482;-80
2021/09/09 05:03:57;;;;;;;0.10;0.10;;;15.50;99.90;;;;;;4998751;28;20421;-80
2021/09/09 05:06:22;;;;;;;0.20;0.20;;;15.60;99.90;;;;;;4998180;28;20486;-79
2021/09/09 05:08:48;;;;;;;0.15;0.15;;;15.70;99.90;;;;;;4982135;28;20545;-80
2021/09/09 05:11:16;;;;;;;0.20;0.20;;;15.80;99.90;;;;;;4998446;28;20022;-79
2021/09/09 05:13:42;;;;;;;0.20;0.20;;;15.90;99.90;;;;;;5018521;28;20046;-79
2021/09/09 05:16:08;;;;;;;0.10;0.10;;;16.00;99.90;;;;;;5015329;28;20033;-80
2021/09/09 05:18:34;;;;;;;0.20;0.20;;;16.10;99.90;;;;;;4997869;28;20029;-79
2021/09/09 05:21:00;;;;;;;0.10;0.10;;;16.10;99.90;;;;;;4997797;28;20379;-81
2021/09/09 05:23:25;;;;;;;0.20;0.20;;;16.20;99.90;;;;;;4997793;28;20026;-79
2021/09/09 05:25:52;;;;;;;0.10;0.10;;;16.30;99.90;;;;;;4981763;28;20176;-80
2021/09/09 05:28:18;;;;;;;0.10;0.10;;;16.30;99.90;;;;;;4997791;28;20021;-80
2021/09/09 05:30:44;;;;;;;0.10;0.10;;;16.40;99.90;;;;;;4982277;28;20511;-80
2021/09/09 05:33:09;;;;;;;0.10;0.10;;;16.40;99.90;;;;;;5002594;28;20021;-80
2021/09/09 05:35:35;;;;;;;0.17;0.17;;;16.50;99.90;;;;;;4995007;28;20084;-80
2021/09/09 05:38:01;;;;;;;0.30;0.30;;;16.50;99.90;;;;;;5006686;28;20026;-80
2021/09/09 05:40:26;;;;;;;0.38;0.38;;;16.60;99.90;;;;;;5018905;28;20075;-82
2021/09/09 05:42:53;;;;;;;0.10;0.10;;;16.80;99.90;;;;;;5029379;28;20036;-80
2021/09/09 05:45:19;;;;;;;0.20;0.20;;;16.80;99.90;;;;;;4986161;28;20566;-81
2021/09/09 05:47:45;;;;;;;0.10;0.10;;;16.90;99.90;;;;;;5017430;28;20037;-80
2021/09/09 05:50:11;;;;;;;0.20;0.20;;;17.00;99.90;;;;;;4999570;28;20030;-81
2021/09/09 05:52:37;;;;;;;0.10;0.10;;;17.10;99.90;;;;;;5016624;28;20025;-79
2021/09/09 05:55:03;;;;;;;1.08;1.08;;;17.20;99.90;;;;;;4996935;28;20407;-80
2021/09/09 05:57:29;;;;;;;0.10;0.10;;;17.20;99.90;;;;;;5016642;28;20026;-80
2021/09/09 05:59:54;;;;;;;0.10;0.10;;;17.30;99.90;;;;;;4998813;28;20472;-81
2021/09/09 06:02:22;;;;;;;0.10;0.10;;;17.40;99.90;;;;;;4998631;28;20026;-81
2021/09/09 06:04:49;;;;;;;0.10;0.10;;;17.60;99.90;;;;;;4987903;28;20045;-81
2021/09/09 06:07:15;;;;;;;0.10;0.10;;;17.80;99.90;;;;;;4989593;28;20026;-81
2021/09/09 06:09:42;;;;;;;0.20;0.20;;;18.10;99.90;;;;;;4997436;28;20083;-81
2021/09/09 06:12:10;;;;;;;0.17;0.17;;;18.50;99.90;;;;;;4983787;28;20034;-82
2021/09/09 06:14:36;;;;;;;0.10;0.10;;;18.80;99.90;;;;;;4981358;28;20033;-82
2021/09/09 06:17:03;;;;;;;0.10;0.10;;;19.10;99.90;;;;;;4986081;28;20486;-83
2021/09/09 06:19:29;;;;;;;0.10;0.10;;;19.30;99.90;;;;;;4997641;28;20054;-82
2021/09/09 06:21:55;;;;;;;0.10;0.10;;;19.50;99.90;;;;;;4998815;28;20424;-81
2021/09/09 06:24:20;;;;;;;0.10;0.10;;;19.70;99.90;;;;;;4997536;28;20026;-81
2021/09/09 06:26:46;;;;;;;0.00;0.00;;;19.90;99.90;;;;;;5001224;28;20506;-81
2021/09/09 06:29:12;;;;;;;0.10;0.10;;;20.00;99.10;;;;;;4982046;28;20084;-79
2021/09/09 06:31:37;;;;;;;0.10;0.10;;;20.10;98.40;;;;;;4983742;28;20109;-79
2021/09/09 06:34:03;;;;;;;0.08;0.08;;;20.20;98.90;;;;;;4995527;28;20096;-78
2021/09/09 06:36:29;;;;;;;0.00;0.00;;;20.40;98.80;;;;;;5013584;28;20818;-81
2021/09/09 06:38:55;;;;;;;0.10;0.10;;;20.60;97.00;;;;;;4980640;28;20022;-79
2021/09/09 06:41:20;;;;;;;0.10;0.10;;;20.80;96.40;;;;;;5013707;28;20080;-79
2021/09/09 06:43:46;;;;;;;0.10;0.10;;;20.90;95.70;;;;;;4996081;28;20032;-79
2021/09/09 06:46:11;;;;;;;0.10;0.10;;;21.00;95.20;;;;;;4994436;28;20060;-79
2021/09/09 06:48:37;;;;;;;0.10;0.10;;;21.00;93.70;;;;;;4997864;28;20086;-79
2021/09/09 06:51:03;;;;;;;0.10;0.10;;;21.00;93.40;;;;;;4994410;28;20033;-78
2021/09/09 06:53:30;;;;;;;0.10;0.10;;;21.00;92.90;;;;;;4982975;28;20030;-77
2021/09/09 06:55:56;;;;;;;0.03;0.03;;;20.90;93.20;;;;;;4993602;28;20403;-78
2021/09/09 06:58:22;;;;;;;0.00;0.00;;;20.90;93.60;;;;;;4995502;28;20022;-78
2021/09/09 07:00:47;;;;;;;0.10;0.10;;;20.90;94.00;;;;;;4978140;28;20053;-78
2021/09/09 07:03:13;;;;;;;0.10;0.10;;;20.90;94.40;;;;;;4997246;28;20459;-78
2021/09/09 07:05:39;;;;;;;0.05;0.05;;;21.00;94.00;;;;;;4994182;28;20030;-78
2021/09/09 07:08:05;;;;;;;0.10;0.10;;;21.20;93.70;;;;;;4981857;28;20022;-78
2021/09/09 07:10:30;;;;;;;0.00;0.00;;;21.60;91.70;;;;;;4978117;28;20073;-78
2021/09/09 07:12:56;;;;;;;0.00;0.00;;;21.80;91.10;;;;;;4978839;28;20026;-78
2021/09/09 07:15:22;;;;;;;0.10;0.10;;;22.10;91.20;;;;;;4977510;28;20021;-78
2021/09/09 07:17:48;;;;;;;0.05;0.05;;;22.40;91.50;;;;;;5014167;28;20062;-78
2021/09/09 07:20:14;;;;;;;0.10;0.10;;;22.80;89.40;;;;;;4997275;28;20041;-78
2021/09/09 07:22:39;;;;;;;0.10;0.10;;;23.20;86.80;;;;;;4988204;28;20025;-78
2021/09/09 07:25:06;;;;;;;0.00;0.00;;;23.60;84.90;;;;;;5017472;28;20018;-78
2021/09/09 07:27:32;;;;;;;0.00;0.00;;;24.00;81.70;;;;;;4995107;28;20034;-78
2021/09/09 07:29:57;;;;;;;0.00;0.00;;;24.50;80.10;;;;;;4994554;28;20072;-78
2021/09/09 07:32:23;;;;;;;0.00;0.00;;;25.10;78.20;;;;;;4995684;28;20037;-78
2021/09/09 07:34:50;;;;;;;0.00;0.00;;;25.60;70.40;;;;;;4993752;28;20018;-79
2021/09/09 07:37:15;;;;;;;0.00;0.00;;;26.10;65.90;;;;;;5012627;28;20117;-78
2021/09/09 07:39:41;;;;;;;0.00;0.00;;;26.50;63.80;;;;;;4980082;28;20563;-78
2021/09/09 07:42:07;;;;;;;0.00;0.00;;;26.90;61.20;;;;;;5011693;28;20045;-78
2021/09/09 07:44:33;;;;;;;0.00;0.00;;;27.10;60.70;;;;;;4994082;28;20080;-78
2021/09/09 07:46:58;;;;;;;0.00;0.00;;;27.70;59.20;;;;;;4977153;28;20026;-78
2021/09/09 07:49:24;;;;;;;0.25;0.25;;;28.70;56.20;;;;;;5013062;28;20022;-78
2021/09/09 07:51:50;;;;;;;0.00;0.00;;;29.80;53.50;;;;;;4993867;28;20037;-79
2021/09/09 07:54:16;;;;;;;0.00;0.00;;;31.00;51.00;;;;;;5014308;28;20037;-79
2021/09/09 07:56:41;;;;;;;0.00;0.00;;;32.60;48.60;;;;;;4993654;28;20053;-79
2021/09/09 07:59:07;;;;;;;0.00;0.00;;;34.00;44.80;;;;;;4977518;28;20437;-79
2021/09/09 08:01:33;;;;;;;0.00;0.00;;;35.10;41.90;;;;;;4977722;28;20029;-79
2021/09/09 08:03:58;;;;;;;0.00;0.00;;;36.30;38.80;;;;;;5013298;28;20029;-79
2021/09/09 08:06:24;;;;;;;0.00;0.00;;;37.20;38.00;;;;;;4993344;28;20030;-79
2021/09/09 08:08:50;;;;;;;0.00;0.00;;;38.10;35.10;;;;;;5013934;28;20421;-79
2021/09/09 08:11:15;;;;;;;0.00;0.00;;;39.00;34.20;;;;;;4994008;28;20028;-80
2021/09/09 08:13:41;;;;;;;0.00;0.00;;;39.90;31.50;;;;;;4981761;28;20014;-79
2021/09/09 08:16:07;;;;;;;0.00;0.00;;;39.90;31.00;;;;;;4993639;28;20086;-79
2021/09/09 08:18:32;;;;;;;0.00;0.00;;;40.50;31.10;;;;;;4994129;28;20689;-78
2021/09/09 08:20:58;;;;;;;0.00;0.00;;;40.90;30.10;;;;;;4993746;28;20022;-79
2021/09/09 08:23:24;;;;;;;0.00;0.00;;;41.50;30.00;;;;;;4996102;28;20025;-80
2021/09/09 08:25:51;;;;;;;0.00;0.00;;;42.10;29.60;;;;;;5010698;28;20482;-80
2021/09/09 08:28:17;;;;;;;0.00;0.00;;;42.50;28.50;;;;;;4996715;28;20025;-79
2021/09/09 08:30:46;;;;;;;0.00;0.00;;;42.80;27.90;;;;;;4978096;28;20086;-80
2021/09/09 08:33:13;;;;;;;0.00;0.00;;;43.40;27.70;;;;;;4978528;28;20098;-80
2021/09/09 08:35:43;;;;;;;0.00;0.00;;;44.20;26.90;;;;;;4993189;28;20041;-80
2021/09/09 08:38:09;;;;;;;0.00;0.00;;;44.30;26.80;;;;;;4994520;28;20025;-80
2021/09/09 08:40:36;;;;;;;0.00;0.00;;;44.30;26.70;;;;;;4993350;28;20068;-80
2021/09/09 08:43:03;;;;;;;0.00;0.00;;;44.30;26.50;;;;;;4993847;28;20538;-80
2021/09/09 08:45:30;;;;;;;0.00;0.00;;;44.60;26.30;;;;;;5016077;28;20033;-80
2021/09/09 08:48:02;;;;;;;0.00;0.00;;;45.10;26.00;;;;;;4994277;28;20029;-80
2021/09/09 08:50:28;;;;;;;0.00;0.00;;;45.50;25.60;;;;;;4995016;28;20479;-80
2021/09/09 08:52:55;;;;;;;0.00;0.00;;;45.80;25.50;;;;;;5018819;28;20558;-78
2021/09/09 08:55:21;;;;;;;0.10;0.10;;;46.50;24.40;;;;;;5013627;28;20390;-78
2021/09/09 08:57:47;;;;;;;0.10;0.10;;;47.10;24.00;;;;;;4993659;28;20026;-79
2021/09/09 09:00:13;;;;;;;0.10;0.10;;;47.80;23.60;;;;;;4996071;28;20018;-83
2021/09/09 09:02:51;;;;;;;0.10;0.10;;;47.90;23.50;;;;;;4993047;28;20026;-78
2021/09/09 09:05:16;;;;;;;0.10;0.10;;;48.50;22.30;;;;;;4993254;28;20105;-78
2021/09/09 09:07:42;;;;;;;0.10;0.10;;;48.90;22.60;;;;;;4994680;28;20106;-83
2021/09/09 09:10:09;;;;;;;0.20;0.20;;;49.10;21.50;;;;;;4979577;28;20486;-80
2021/09/09 09:12:44;;;;;;;0.20;0.20;;;48.40;22.50;;;;;;5012140;28;20038;-78
2021/09/09 09:15:18;;;;;;;0.20;0.20;;;49.00;23.30;;;;;;4980667;28;20117;-78
2021/09/09 09:18:00;;;;;;;0.30;0.30;;;50.00;22.10;;;;;;4994539;28;20030;-79
2021/09/09 09:20:45;;;;;;;0.30;0.30;;;50.60;20.90;;;;;;5001392;28;20030;-78
2021/09/09 09:23:16;;;;;;;0.30;0.30;;;51.40;20.20;;;;;;4981307;28;20121;-79
2021/09/09 09:25:44;;;;;;;0.30;0.30;;;51.10;20.10;;;;;;4997821;28;20021;-78
2021/09/09 09:28:10;;;;;;;0.20;0.20;;;50.80;20.30;;;;;;4997046;28;20057;-79
2021/09/09 09:30:35;;;;;;;0.20;0.20;;;49.60;20.50;;;;;;4982893;28;20060;-77
2021/09/09 09:33:01;;;;;;;0.20;0.20;;;49.20;21.20;;;;;;4996755;28;20022;-78
2021/09/09 09:35:27;;;;;;;0.20;0.20;;;49.60;20.80;;;;;;5001289;28;20054;-78
2021/09/09 09:37:59;;;;;;;0.30;0.30;;;49.60;20.60;;;;;;4997737;28;20044;-80
2021/09/09 09:40:34;;;;;;;0.30;0.30;;;50.00;20.40;;;;;;4982289;28;20032;-79
2021/09/09 09:43:08;;;;;;;0.40;0.40;;;50.70;19.90;;;;;;4998379;28;20368;-79
2021/09/09 09:45:34;;;;;;;0.50;0.50;;;51.50;19.50;;;;;;5017474;28;20032;-78
2021/09/09 09:47:59;;;;;;;0.40;0.40;;;52.00;19.70;;;;;;4981873;28;20461;-79
2021/09/09 09:50:25;;;;;;;0.40;0.40;;;51.80;19.10;;;;;;4986247;28;20116;-79
2021/09/09 09:53:18;;;;;;;0.40;0.40;;;51.60;19.40;;;;;;4998941;28;20058;-79
2021/09/09 09:55:45;;;;;;;0.40;0.40;;;51.00;19.90;;;;;;4980780;28;20037;-79
2021/09/09 09:58:11;;;;;;;1.02;1.02;;;51.50;20.90;;;;;;4996918;28;20041;-79
2021/09/09 10:00:37;;;;;;;0.60;0.60;;;52.20;19.70;;;;;;4998619;28;20487;-79
2021/09/09 10:03:04;;;;;;;0.40;0.40;;;53.00;19.50;;;;;;4997023;28;20025;-78
2021/09/09 10:05:32;;;;;;;0.40;0.40;;;52.20;20.70;;;;;;4983398;28;20089;-79
2021/09/09 10:07:59;;;;;;;0.40;0.40;;;51.70;20.90;;;;;;4985713;28;20093;-79
2021/09/09 10:10:25;;;;;;;0.30;0.30;;;52.20;20.20;;;;;;5015346;28;20022;-78
2021/09/09 10:12:52;;;;;;;0.30;0.30;;;51.30;20.50;;;;;;4996633;28;20141;-78
2021/09/09 10:15:19;;;;;;;0.30;0.30;;;50.70;20.50;;;;;;4997198;28;20026;-79
2021/09/09 10:17:46;;;;;;;0.35;0.35;;;51.20;20.90;;;;;;4995548;28;20176;-79
2021/09/09 10:20:40;;;;;;;0.50;0.50;;;52.00;19.50;;;;;;4982941;28;20080;-78
2021/09/09 10:23:06;;;;;;;0.50;0.50;;;52.40;19.50;;;;;;4995719;28;20049;-79
2021/09/09 10:25:48;;;;;;;0.60;0.60;;;52.70;19.30;;;;;;4995088;28;20022;-79
2021/09/09 10:28:32;;;;;;;0.80;0.80;;;53.80;19.10;;;;;;5012497;28;20053;-78
2021/09/09 10:31:10;;;;;;;0.70;0.70;;;54.30;19.30;;;;;;4979431;28;20022;-79
2021/09/09 10:33:40;;;;;;;0.80;0.80;;;53.50;19.00;;;;;;5013363;28;20109;-80
2021/09/09 10:36:34;;;;;;;1.00;1.00;;;54.10;20.00;;;;;;4998249;28;20268;-79
2021/09/09 10:39:00;;;;;;;1.10;1.10;;;54.50;18.80;;;;;;4979162;28;20033;-79
2021/09/09 10:41:29;;;;;;;1.20;1.20;;;55.10;19.20;;;;;;4983050;28;20079;-79
2021/09/09 10:44:00;;;;;;;1.30;1.30;;;55.70;18.90;;;;;;4978325;28;20508;-79
2021/09/09 10:46:37;;;;;;;1.50;1.50;;;56.00;18.80;;;;;;4979647;28;20101;-79
2021/09/09 10:49:08;;;;;;;1.80;1.80;;;56.20;18.40;;;;;;4978983;28;20466;-79
2021/09/09 10:51:34;;;;;;;2.20;2.10;;;56.50;18.50;;;;;;4997873;28;20100;-79
2021/09/09 10:54:00;;;;;;;2.30;2.20;;;56.50;18.00;;;;;;4978562;28;20469;-79
2021/09/09 10:56:37;;;;;;;2.05;1.98;;;56.90;17.80;;;;;;4982676;28;20034;-79
2021/09/09 10:59:13;;;;;;;1.88;1.88;;;56.70;18.40;;;;;;4999411;28;20026;-79
2021/09/09 11:01:44;;;;;;;14.10;12.85;;;56.60;18.20;;;;;;5015033;28;20026;-78
2021/09/09 11:04:30;;;;;;;1.80;1.80;;;55.80;18.50;;;;;;4986506;28;20080;-80
2021/09/09 11:06:56;;;;;;;2.00;1.90;;;55.90;19.00;;;;;;4999922;28;20032;-79
2021/09/09 11:09:23;;;;;;;2.38;2.28;;;56.10;18.80;;;;;;4997641;28;20025;-80
2021/09/09 11:12:01;;;;;;;2.40;2.30;;;56.70;18.40;;;;;;5017369;28;20113;-79
2021/09/09 11:14:27;;;;;;;2.10;2.00;;;56.60;18.10;;;;;;4983034;28;20564;-79
2021/09/09 11:16:53;;;;;;;1.70;1.70;;;56.20;18.40;;;;;;4980744;28;20080;-79
2021/09/09 11:19:22;;;;;;;1.80;1.80;;;56.10;18.20;;;;;;4997636;28;20022;-79
2021/09/09 11:21:49;;;;;;;2.10;2.00;;;56.40;19.20;;;;;;4997812;28;20026;-79
2021/09/09 11:24:16;;;;;;;2.30;2.20;;;57.00;19.20;;;;;;4996420;28;20459;-80
2021/09/09 11:26:47;;;;;;;2.80;2.70;;;57.90;18.10;;;;;;4982692;28;20509;-80
2021/09/09 11:29:15;;;;;;;2.80;2.70;;;58.10;17.70;;;;;;4998672;28;20028;-80
2021/09/09 11:31:56;;;;;;;2.90;2.80;;;58.10;17.30;;;;;;4979149;28;20109;-80
2021/09/09 11:34:26;;;;;;;2.60;2.50;;;58.20;17.60;;;;;;4995139;28;20509;-79
2021/09/09 11:36:53;;;;;;;2.10;2.00;;;57.90;17.40;;;;;;4980064;28;20030;-78
2021/09/09 11:39:23;;;;;;;1.50;1.50;;;57.40;17.30;;;;;;4996359;28;20096;-79
2021/09/09 11:41:52;;;;;;;1.40;1.40;;;55.70;18.20;;;;;;4997145;28;20180;-83
2021/09/09 11:44:32;;;;;;;1.48;1.48;;;55.90;18.30;;;;;;5012836;28;20032;-79
2021/09/09 11:47:00;;;;;;;1.50;1.50;;;56.50;18.00;;;;;;4999475;28;20513;-79
2021/09/09 11:49:30;;;;;;;1.33;1.33;;;56.50;18.10;;;;;;5013277;28;20032;-79
2021/09/09 11:51:58;;;;;;;1.50;1.50;;;56.90;18.10;;;;;;4979176;28;20022;-78
2021/09/09 11:54:24;;;;;;;;;;;57.20;17.60;;;;;;4982048;28;20025;-79
2021/09/09 11:57:05;;;;;;;1.40;1.40;;;57.00;18.00;;;;;;4997360;28;20019;-79
2021/09/09 11:59:32;;;;;;;1.58;1.58;;;57.20;17.60;;;;;;4979395;28;20084;-79
2021/09/09 12:02:07;;;;;;;1.50;1.50;;;57.80;17.30;;;;;;4995966;28;20100;-78
2021/09/09 12:04:38;;;;;;;1.40;1.40;;;57.90;17.70;;;;;;4996234;28;20431;-78
2021/09/09 12:07:09;;;;;;;1.50;1.50;;;57.90;17.50;;;;;;5001083;28;20113;-78
2021/09/09 12:09:38;;;;;;;1.10;1.10;;;57.80;17.80;;;;;;4982467;28;20030;-79
2021/09/09 12:12:06;;;;;;;0.60;0.60;;;56.10;18.00;;;;;;4999680;28;20037;-77
2021/09/09 12:14:33;;;;;;;0.30;0.30;;;53.30;18.80;;;;;;5013690;28;20088;-77
2021/09/09 12:17:14;;;;;;;0.10;0.10;;;50.50;20.50;;;;;;4999812;28;20032;-78
2021/09/09 12:19:57;;;;;;;0.00;0.00;;;46.70;23.30;;;;;;4979223;28;20475;-77
2021/09/09 12:22:46;;;;;;;0.00;0.00;;;43.80;24.80;;;;;;4996158;28;20083;-77
2021/09/09 12:25:17;;;;;;;0.00;0.00;;;41.20;27.10;;;;;;5001342;28;20119;-76
2021/09/09 12:28:07;;;;;;;0.00;0.00;;;39.50;28.30;;;;;;4996509;28;20044;-77
2021/09/09 12:30:34;;;;;;;0.00;0.00;;;37.80;30.20;;;;;;4995136;28;20086;-76
2021/09/09 12:33:15;;;;;;;0.00;0.00;;;37.20;31.20;;;;;;4996326;28;20030;-76
2021/09/09 12:36:01;;;;;;;1.85;0.68;;;36.60;31.60;;;;;;4976435;28;20033;-76
2021/09/09 12:38:45;;;;;;;0.00;0.00;;;35.30;34.50;;;;;;4994216;28;20029;-78
2021/09/09 12:41:16;;;;;;;0.00;0.00;;;34.70;36.30;;;;;;4975256;28;20628;-78
2021/09/09 12:43:52;;;;;;;0.00;0.00;;;34.40;36.80;;;;;;4979303;28;20030;-78
2021/09/09 12:46:35;;;;;;;0.00;0.00;;;34.20;37.80;;;;;;4980303;28;20388;-79
2021/09/09 12:49:07;;;;;;;0.00;0.00;;;34.10;37.30;;;;;;4980440;28;20033;-78
2021/09/09 12:51:37;;;;;;;0.00;0.00;;;34.10;36.80;;;;;;4993828;28;20085;-78